Time;durP1;ratioP1;P1;durP2;ratioP2;P2;SDS_P1;SDS_P2;PMS_P1;PMS_P2;Temp;Humidity;BMP_temperature;BMP_pressure;BME280_temperature;BME280_humidity;BME280_pressure;Samples;Min_cycle;Max_cycle;Signal;HPM_P1;HPM_P2
2021/08/17 00:00:05;;;;;;;2.97;2.27;;;16.30;99.90;;;;;;6221275;28;20200;-77
2021/08/17 00:03:08;;;;;;;2.90;2.07;;;16.20;99.90;;;;;;6220758;28;20217;-76
2021/08/17 00:06:11;;;;;;;3.17;2.10;;;16.20;99.90;;;;;;6222743;28;20216;-76
2021/08/17 00:09:15;;;;;;;3.43;1.87;;;16.30;99.90;;;;;;6221342;28;20184;-75
2021/08/17 00:12:17;;;;;;;4.10;1.87;;;16.30;99.90;;;;;;6222244;28;20197;-76
2021/08/17 00:15:20;;;;;;;3.40;2.10;;;16.30;99.90;;;;;;6220887;28;20568;-76
2021/08/17 00:18:22;;;;;;;2.77;2.03;;;16.30;99.90;;;;;;6220872;28;20185;-76
2021/08/17 00:21:24;;;;;;;3.03;2.00;;;16.30;99.90;;;;;;6220740;28;20212;-77
2021/08/17 00:24:26;;;;;;;4.97;2.10;;;16.30;99.90;;;;;;6204528;28;20208;-76
2021/08/17 00:27:29;;;;;;;3.30;2.00;;;16.30;99.90;;;;;;6220415;28;20193;-76
2021/08/17 00:30:31;;;;;;;4.37;2.40;;;16.30;99.90;;;;;;6220837;28;20200;-77
2021/08/17 00:33:33;;;;;;;2.93;2.17;;;16.20;99.90;;;;;;6220355;28;20193;-77
2021/08/17 00:36:36;;;;;;;4.73;2.37;;;16.20;99.90;;;;;;6221835;28;20228;-76
2021/08/17 00:39:38;;;;;;;3.90;1.93;;;16.10;99.90;;;;;;6220568;28;20196;-77
2021/08/17 00:42:43;;;;;;;2.30;1.80;;;16.20;99.90;;;;;;6203977;28;20232;-76
2021/08/17 00:45:45;;;;;;;5.43;2.13;;;16.20;99.90;;;;;;6220463;28;20197;-76
2021/08/17 00:48:48;;;;;;;6.03;2.20;;;16.20;99.90;;;;;;6220035;28;20200;-77
2021/08/17 00:51:54;;;;;;;3.20;2.00;;;16.30;99.90;;;;;;6221642;28;20196;-76
2021/08/17 00:54:56;;;;;;;3.33;2.00;;;16.20;99.90;;;;;;6206131;28;20193;-77
2021/08/17 00:58:02;;;;;;;6.00;2.10;;;16.30;99.90;;;;;;6226455;28;20208;-76
2021/08/17 01:01:04;;;;;;;3.00;2.00;;;16.30;99.90;;;;;;6225065;28;20655;-77
2021/08/17 01:04:08;;;;;;;3.53;2.20;;;16.20;99.90;;;;;;6208382;28;20217;-77
2021/08/17 01:07:12;;;;;;;3.90;2.03;;;16.20;99.90;;;;;;6226017;28;20193;-77
2021/08/17 01:10:14;;;;;;;3.50;2.07;;;16.20;99.90;;;;;;6225842;28;20551;-77
2021/08/17 01:13:17;;;;;;;4.00;2.20;;;16.20;99.90;;;;;;6208775;28;20207;-77
2021/08/17 01:16:20;;;;;;;3.10;1.90;;;16.10;99.90;;;;;;6226696;28;20204;-75
2021/08/17 01:19:23;;;;;;;3.40;2.00;;;16.00;99.90;;;;;;6225331;28;20653;-77
2021/08/17 01:22:26;;;;;;;2.77;2.00;;;15.90;99.90;;;;;;6224519;28;20597;-76
2021/08/17 01:25:34;;;;;;;5.33;1.80;;;15.90;99.90;;;;;;6223975;28;20754;-76
2021/08/17 01:28:36;;;;;;;4.83;1.83;;;15.80;99.90;;;;;;6208364;28;20201;-76
2021/08/17 01:31:39;;;;;;;4.20;2.20;;;15.80;99.90;;;;;;6223682;28;20197;-77
2021/08/17 01:34:42;;;;;;;5.63;2.40;;;15.80;99.90;;;;;;6224442;28;20212;-75
2021/08/17 01:37:45;;;;;;;5.33;2.13;;;15.80;99.90;;;;;;6224226;28;20227;-76
2021/08/17 01:40:47;;;;;;;5.63;2.07;;;15.80;99.90;;;;;;6228753;28;20227;-77
2021/08/17 01:43:50;;;;;;;5.27;1.90;;;15.70;99.90;;;;;;6207973;28;20255;-76
2021/08/17 01:46:53;;;;;;;4.67;2.13;;;15.60;99.90;;;;;;6224821;28;20569;-76
2021/08/17 01:49:55;;;;;;;3.60;2.17;;;15.60;99.90;;;;;;6224001;28;20199;-75
2021/08/17 01:52:58;;;;;;;4.80;2.37;;;15.60;99.90;;;;;;6207647;28;20201;-76
2021/08/17 01:56:12;;;;;;;2.90;1.73;;;15.50;99.90;;;;;;6223614;28;20197;-76
2021/08/17 01:59:16;;;;;;;4.47;2.23;;;15.50;99.90;;;;;;6225045;28;20657;-77
2021/08/17 02:02:18;;;;;;;4.00;1.90;;;15.40;99.90;;;;;;6224668;28;20209;-76
2021/08/17 02:05:23;;;;;;;7.17;2.30;;;15.40;99.90;;;;;;6224610;28;20185;-76
2021/08/17 02:08:26;;;;;;;4.97;2.10;;;15.30;99.90;;;;;;6207449;28;20207;-75
2021/08/17 02:11:28;;;;;;;3.50;2.10;;;15.20;99.90;;;;;;6223107;28;20201;-75
2021/08/17 02:14:30;;;;;;;3.00;2.23;;;15.30;99.90;;;;;;6239789;28;20550;-78
2021/08/17 02:17:33;;;;;;;2.77;2.17;;;15.30;99.90;;;;;;6222824;28;20219;-77
2021/08/17 02:20:35;;;;;;;3.33;2.37;;;15.30;99.90;;;;;;6224564;28;20200;-76
2021/08/17 02:23:39;;;;;;;2.73;2.10;;;15.30;99.90;;;;;;6206381;28;20260;-77
2021/08/17 02:26:41;;;;;;;3.53;2.13;;;15.30;99.90;;;;;;6223220;28;20572;-75
2021/08/17 02:29:43;;;;;;;3.40;2.20;;;15.30;99.90;;;;;;6224259;28;20189;-76
2021/08/17 02:32:46;;;;;;;3.60;2.10;;;15.20;99.90;;;;;;6222726;28;20204;-76
2021/08/17 02:35:48;;;;;;;5.33;2.23;;;15.20;99.90;;;;;;6198780;28;20214;-76
2021/08/17 02:38:50;;;;;;;3.37;2.43;;;15.10;99.90;;;;;;6219253;28;20204;-76
2021/08/17 02:41:53;;;;;;;4.33;2.57;;;15.10;99.90;;;;;;6206444;28;20228;-76
2021/08/17 02:44:55;;;;;;;3.77;2.23;;;15.10;99.90;;;;;;6223970;28;20617;-76
2021/08/17 02:48:02;;;;;;;4.10;1.90;;;15.10;99.90;;;;;;6222615;28;20704;-77
2021/08/17 02:51:05;;;;;;;4.27;2.20;;;15.00;99.90;;;;;;6222562;28;20719;-76
2021/08/17 02:54:07;;;;;;;4.23;2.20;;;15.00;99.90;;;;;;6223617;28;20192;-76
2021/08/17 02:57:09;;;;;;;4.07;1.87;;;15.00;99.90;;;;;;6223846;28;20250;-75
2021/08/17 03:00:13;;;;;;;3.13;2.00;;;15.00;99.90;;;;;;6223831;28;20189;-77
2021/08/17 03:03:15;;;;;;;4.23;2.67;;;14.90;99.90;;;;;;6205538;28;20220;-76
2021/08/17 03:06:18;;;;;;;4.60;2.23;;;14.90;99.90;;;;;;6223562;28;20197;-77
2021/08/17 03:09:21;;;;;;;4.97;2.87;;;14.90;99.90;;;;;;6221598;28;20200;-76
2021/08/17 03:12:23;;;;;;;3.60;2.10;;;14.80;99.90;;;;;;6222217;28;20188;-76
2021/08/17 03:15:32;;;;;;;5.43;2.30;;;14.90;99.90;;;;;;6223051;28;20196;-77
2021/08/17 03:18:35;;;;;;;4.30;2.40;;;14.90;99.90;;;;;;6221442;28;20196;-76
2021/08/17 03:21:37;;;;;;;4.40;2.27;;;14.90;99.90;;;;;;6222095;28;20184;-76
2021/08/17 03:24:40;;;;;;;3.57;2.40;;;14.90;99.90;;;;;;6222756;28;20213;-76
2021/08/17 03:27:42;;;;;;;5.17;2.33;;;14.90;99.90;;;;;;6223151;28;20185;-77
2021/08/17 03:30:45;;;;;;;4.90;2.17;;;14.90;99.90;;;;;;6222595;28;20196;-76
2021/08/17 03:33:47;;;;;;;4.40;2.70;;;14.80;99.90;;;;;;6213942;28;20197;-76
2021/08/17 03:36:49;;;;;;;4.10;2.97;;;14.80;99.90;;;;;;6213990;28;20242;-76
2021/08/17 03:39:52;;;;;;;4.03;3.10;;;14.80;99.90;;;;;;6205033;28;20611;-76
2021/08/17 03:42:54;;;;;;;5.03;2.70;;;14.80;99.90;;;;;;6194812;28;20241;-77
2021/08/17 03:45:57;;;;;;;4.93;3.47;;;14.80;99.90;;;;;;6202945;28;20227;-77
2021/08/17 03:48:59;;;;;;;4.63;3.03;;;14.80;99.90;;;;;;6221462;28;20279;-77
2021/08/17 03:52:02;;;;;;;3.77;2.87;;;14.80;99.90;;;;;;6221392;28;20220;-76
2021/08/17 03:55:04;;;;;;;5.13;2.47;;;14.80;99.90;;;;;;6204785;28;20201;-76
2021/08/17 03:58:07;;;;;;;2.93;1.87;;;14.80;99.90;;;;;;6205208;28;20239;-77
2021/08/17 04:01:09;;;;;;;2.33;1.60;;;14.70;99.90;;;;;;6237069;28;20207;-77
2021/08/17 04:04:12;;;;;;;1.90;1.67;;;14.70;99.90;;;;;;6213296;28;20218;-77
2021/08/17 04:07:15;;;;;;;1.73;1.10;;;14.70;99.90;;;;;;6208632;28;20185;-77
2021/08/17 04:10:18;;;;;;;2.40;1.47;;;14.60;99.90;;;;;;6221152;28;20184;-76
2021/08/17 04:13:20;;;;;;;3.77;1.37;;;14.60;99.90;;;;;;6221246;28;20222;-76
2021/08/17 04:16:22;;;;;;;1.27;1.00;;;14.60;99.90;;;;;;6204194;28;20210;-76
2021/08/17 04:19:26;;;;;;;0.93;0.60;;;14.50;99.90;;;;;;6204946;28;20228;-76
2021/08/17 04:22:28;;;;;;;1.17;0.63;;;14.40;99.90;;;;;;6212518;28;20644;-76
2021/08/17 04:25:30;;;;;;;0.83;0.73;;;14.30;99.90;;;;;;6232736;28;20282;-76
2021/08/17 04:28:34;;;;;;;0.63;0.63;;;14.20;99.90;;;;;;6222136;28;20188;-76
2021/08/17 04:31:37;;;;;;;1.10;0.70;;;14.10;99.90;;;;;;6209002;28;20338;-76
2021/08/17 04:34:39;;;;;;;1.90;0.70;;;14.00;99.90;;;;;;6225832;28;20220;-77
2021/08/17 04:37:42;;;;;;;0.40;0.40;;;13.90;99.90;;;;;;6225106;28;20203;-76
2021/08/17 04:40:44;;;;;;;0.80;0.50;;;13.90;99.90;;;;;;6226529;28;20309;-76
2021/08/17 04:43:46;;;;;;;0.73;0.40;;;13.80;99.90;;;;;;6225397;28;20580;-76
2021/08/17 04:46:49;;;;;;;0.93;0.40;;;13.80;99.90;;;;;;6225198;28;20298;-76
2021/08/17 04:49:51;;;;;;;1.67;0.40;;;13.70;99.90;;;;;;6224830;28;20555;-76
2021/08/17 04:52:53;;;;;;;0.80;0.53;;;13.70;99.90;;;;;;6224840;28;20196;-76
2021/08/17 04:55:56;;;;;;;0.30;0.30;;;13.70;99.90;;;;;;6226274;28;20208;-76
2021/08/17 04:58:58;;;;;;;1.80;0.50;;;13.70;99.90;;;;;;6224456;28;20203;-76
2021/08/17 05:02:01;;;;;;;0.20;0.20;;;13.80;99.90;;;;;;6224635;28;20231;-76
2021/08/17 05:05:04;;;;;;;0.57;0.40;;;13.80;99.90;;;;;;6224654;28;20216;-76
2021/08/17 05:08:08;;;;;;;0.30;0.30;;;13.90;99.90;;;;;;6208268;28;20192;-76
2021/08/17 05:11:10;;;;;;;2.63;0.30;;;13.90;99.90;;;;;;6225839;28;20251;-76
2021/08/17 05:14:12;;;;;;;0.20;0.20;;;13.90;99.90;;;;;;6224036;28;20298;-76
2021/08/17 05:17:15;;;;;;;2.30;0.30;;;13.90;99.90;;;;;;6225586;28;20210;-77
2021/08/17 05:20:17;;;;;;;0.30;0.30;;;13.90;99.90;;;;;;6224469;28;20209;-77
2021/08/17 05:23:20;;;;;;;1.33;0.20;;;14.00;99.90;;;;;;6223871;28;20223;-76
2021/08/17 05:26:24;;;;;;;0.70;0.40;;;14.10;99.90;;;;;;6224384;28;20731;-78
2021/08/17 05:29:26;;;;;;;0.80;0.40;;;14.20;99.90;;;;;;6223623;28;20212;-77
2021/08/17 05:32:28;;;;;;;0.40;0.40;;;14.30;99.90;;;;;;6223996;28;20273;-76
2021/08/17 05:35:31;;;;;;;0.30;0.30;;;14.40;99.90;;;;;;6225238;28;20677;-76
2021/08/17 05:38:34;;;;;;;0.67;0.27;;;14.40;99.90;;;;;;6223939;28;20196;-76
2021/08/17 05:41:37;;;;;;;0.60;0.30;;;14.40;99.90;;;;;;6234428;28;20243;-76
2021/08/17 05:44:44;;;;;;;0.50;0.40;;;14.40;99.90;;;;;;6223407;28;20299;-77
2021/08/17 05:47:46;;;;;;;0.70;0.33;;;14.40;99.90;;;;;;6223781;28;20215;-76
2021/08/17 05:50:50;;;;;;;2.07;0.50;;;14.40;99.90;;;;;;6207335;28;20214;-76
2021/08/17 05:53:52;;;;;;;0.20;0.20;;;14.40;99.90;;;;;;6224939;28;20706;-76
2021/08/17 05:56:57;;;;;;;0.30;0.30;;;14.40;99.90;;;;;;6207242;28;20252;-76
2021/08/17 06:00:00;;;;;;;0.40;0.40;;;14.50;99.90;;;;;;6223138;28;20193;-77
2021/08/17 06:03:12;;;;;;;0.70;0.50;;;14.50;99.90;;;;;;6223429;28;20291;-76
2021/08/17 06:06:15;;;;;;;0.30;0.30;;;14.60;99.90;;;;;;6206955;28;20193;-76
2021/08/17 06:09:20;;;;;;;2.00;0.50;;;14.60;99.90;;;;;;6207066;28;20204;-76
2021/08/17 06:12:23;;;;;;;1.07;0.40;;;14.70;99.90;;;;;;6224211;28;20318;-76
2021/08/17 06:15:26;;;;;;;1.27;0.47;;;14.70;99.90;;;;;;6223881;28;20204;-77
2021/08/17 06:18:28;;;;;;;1.70;0.47;;;14.80;99.90;;;;;;6223376;28;20597;-76
2021/08/17 06:21:34;;;;;;;0.73;0.60;;;14.80;99.90;;;;;;6223641;28;20233;-76
2021/08/17 06:24:37;;;;;;;0.37;0.37;;;14.70;99.90;;;;;;6222841;28;20307;-76
2021/08/17 06:27:39;;;;;;;0.80;0.80;;;14.80;99.90;;;;;;6238948;28;20220;-77
2021/08/17 06:30:42;;;;;;;0.80;0.73;;;14.80;99.90;;;;;;6206566;28;20671;-76
2021/08/17 06:33:44;;;;;;;2.60;0.67;;;14.70;99.90;;;;;;6222620;28;20200;-76
2021/08/17 06:36:46;;;;;;;1.80;0.73;;;14.80;99.90;;;;;;6205981;28;20223;-77
2021/08/17 06:39:49;;;;;;;0.77;0.77;;;14.80;99.90;;;;;;6223615;28;20201;-75
2021/08/17 06:42:54;;;;;;;0.67;0.67;;;14.80;99.90;;;;;;6205629;28;20252;-77
2021/08/17 06:46:02;;;;;;;1.23;0.80;;;14.80;99.90;;;;;;6222497;28;20205;-77
2021/08/17 06:49:04;;;;;;;0.73;0.73;;;14.90;99.90;;;;;;6222114;28;20536;-77
2021/08/17 06:52:07;;;;;;;1.30;1.13;;;15.00;99.90;;;;;;6220895;28;20201;-75
2021/08/17 06:55:11;;;;;;;1.20;1.10;;;15.10;99.90;;;;;;6222032;28;20201;-75
2021/08/17 06:58:14;;;;;;;1.47;0.97;;;15.00;99.90;;;;;;6221908;28;20200;-76
2021/08/17 07:01:17;;;;;;;1.30;1.20;;;14.90;99.90;;;;;;6223159;28;20196;-76
2021/08/17 07:04:19;;;;;;;3.03;1.30;;;14.90;99.90;;;;;;6205737;28;20727;-76
2021/08/17 07:07:22;;;;;;;1.20;1.10;;;15.00;99.90;;;;;;6205324;28;20669;-76
2021/08/17 07:10:24;;;;;;;1.50;1.40;;;15.00;99.90;;;;;;6221779;28;20188;-76
2021/08/17 07:13:46;;;;;;;1.10;1.10;;;15.00;99.90;;;;;;6222487;28;20193;-76
2021/08/17 07:16:49;;;;;;;1.00;1.00;;;15.00;99.90;;;;;;6222022;28;20192;-76
2021/08/17 07:19:51;;;;;;;4.03;1.03;;;15.00;99.90;;;;;;6219792;28;20185;-77
2021/08/17 07:22:54;;;;;;;2.13;0.97;;;15.00;99.90;;;;;;6221182;28;20615;-76
2021/08/17 07:25:57;;;;;;;0.93;0.77;;;15.00;99.90;;;;;;6201553;28;20697;-77
2021/08/17 07:28:59;;;;;;;1.80;0.80;;;14.90;99.90;;;;;;6221570;28;20192;-77
2021/08/17 07:32:01;;;;;;;1.13;0.67;;;14.90;99.90;;;;;;6222071;28;20208;-76
2021/08/17 07:35:04;;;;;;;1.17;0.90;;;15.00;99.90;;;;;;6220542;28;20224;-78
2021/08/17 07:38:07;;;;;;;0.83;0.80;;;15.00;99.90;;;;;;6208030;28;20200;-76
2021/08/17 07:41:09;;;;;;;2.27;0.90;;;15.00;99.90;;;;;;6208531;28;20592;-76
2021/08/17 07:44:12;;;;;;;1.67;0.87;;;15.10;99.90;;;;;;6195028;28;20205;-77
2021/08/17 07:47:14;;;;;;;1.30;0.87;;;15.10;99.90;;;;;;6213332;28;20207;-77
2021/08/17 07:50:16;;;;;;;1.67;0.80;;;15.20;99.90;;;;;;6221496;28;20189;-77
2021/08/17 07:53:20;;;;;;;0.70;0.63;;;15.20;99.90;;;;;;6220357;28;20787;-76
2021/08/17 07:56:22;;;;;;;0.73;0.60;;;15.30;99.90;;;;;;6220818;28;20188;-76
2021/08/17 07:59:25;;;;;;;3.33;0.73;;;15.20;99.90;;;;;;6204548;28;20327;-77
2021/08/17 08:02:27;;;;;;;2.07;1.03;;;15.30;99.90;;;;;;6220789;28;20529;-76
2021/08/17 08:05:30;;;;;;;1.60;0.80;;;15.30;99.90;;;;;;6219980;28;20220;-76
2021/08/17 08:08:32;;;;;;;1.70;1.00;;;15.40;99.90;;;;;;6220557;28;20199;-76
2021/08/17 08:11:34;;;;;;;1.83;1.13;;;15.40;99.90;;;;;;6221500;28;20307;-76
2021/08/17 08:14:37;;;;;;;2.00;1.00;;;15.40;99.90;;;;;;6202558;28;20201;-76
2021/08/17 08:17:39;;;;;;;0.90;0.90;;;15.30;99.90;;;;;;6221054;28;20193;-76
2021/08/17 08:20:42;;;;;;;0.80;0.80;;;15.30;99.90;;;;;;6212081;28;20201;-76
2021/08/17 08:23:45;;;;;;;3.13;0.80;;;15.30;99.90;;;;;;6201168;28;20212;-76
2021/08/17 08:26:47;;;;;;;1.37;1.10;;;15.30;99.90;;;;;;6219220;28;20270;-77
2021/08/17 08:29:49;;;;;;;1.93;1.20;;;15.40;99.90;;;;;;6220918;28;20192;-75
2021/08/17 08:32:52;;;;;;;1.30;1.00;;;15.50;99.90;;;;;;6204151;28;20188;-76
2021/08/17 08:35:55;;;;;;;1.87;1.20;;;15.60;99.90;;;;;;6219934;28;20568;-76
2021/08/17 08:38:57;;;;;;;1.23;1.13;;;15.80;99.90;;;;;;6220603;28;20275;-76
2021/08/17 08:42:01;;;;;;;1.23;1.10;;;15.90;99.90;;;;;;6219534;28;20763;-76
2021/08/17 08:45:04;;;;;;;1.40;1.30;;;16.00;99.90;;;;;;6220118;28;20700;-76
2021/08/17 08:48:07;;;;;;;2.20;1.40;;;16.00;99.90;;;;;;6221440;28;20200;-76
2021/08/17 08:51:09;;;;;;;2.63;1.50;;;16.20;99.90;;;;;;6212330;28;20299;-76
2021/08/17 08:54:12;;;;;;;2.07;1.53;;;16.20;99.90;;;;;;6228356;28;20201;-77
2021/08/17 08:57:15;;;;;;;3.10;1.50;;;16.20;99.90;;;;;;6203449;28;20209;-77
2021/08/17 09:00:18;;;;;;;2.03;1.50;;;16.30;99.90;;;;;;6221509;28;20201;-76
2021/08/17 09:03:45;;;;;;;2.83;1.50;;;16.60;99.90;;;;;;6220875;28;20204;-76
2021/08/17 09:06:54;;;;;;;2.50;1.90;;;17.10;99.90;;;;;;6220160;28;20200;-76
2021/08/17 09:10:05;;;;;;;2.73;1.60;;;17.60;99.90;;;;;;6221560;28;20323;-77
2021/08/17 09:13:07;;;;;;;2.40;1.67;;;18.00;99.90;;;;;;6221199;28;20177;-76
2021/08/17 09:16:28;;;;;;;3.93;2.37;;;18.40;99.90;;;;;;6222061;28;20196;-75
2021/08/17 09:19:39;;;;;;;3.80;2.57;;;18.60;99.90;;;;;;6199939;28;20182;-76
2021/08/17 09:22:42;;;;;;;3.97;1.67;;;18.70;99.40;;;;;;6224618;28;20208;-76
2021/08/17 09:25:46;;;;;;;2.10;1.80;;;18.80;99.30;;;;;;6225224;28;20200;-77
2021/08/17 09:29:03;;;;;;;4.57;2.10;;;19.10;98.50;;;;;;6225397;28;20211;-77
2021/08/17 09:32:16;;;;;;;4.50;1.97;;;19.50;98.50;;;;;;6224080;28;20699;-77
2021/08/17 09:35:21;;;;;;;3.90;2.13;;;19.70;94.70;;;;;;6223810;28;20245;-77
2021/08/17 09:38:40;;;;;;;2.97;1.90;;;20.10;95.80;;;;;;6224198;28;20235;-77
2021/08/17 09:41:42;;;;;;;2.83;1.80;;;20.30;95.60;;;;;;6223114;28;20730;-78
2021/08/17 09:45:05;;;;;;;2.17;1.90;;;20.40;93.40;;;;;;6224881;28;20212;-77
2021/08/17 09:48:11;;;;;;;4.40;1.93;;;20.70;93.60;;;;;;6206431;28;20217;-77
2021/08/17 09:51:34;;;;;;;3.27;1.80;;;20.80;91.50;;;;;;6207200;28;20329;-78
2021/08/17 09:54:42;;;;;;;3.50;1.90;;;21.10;90.30;;;;;;6224721;28;20267;-77
2021/08/17 09:57:45;;;;;;;3.33;1.80;;;21.10;84.90;;;;;;6223243;28;20212;-77
2021/08/17 10:00:49;;;;;;;3.00;1.73;;;21.30;87.70;;;;;;6224621;28;20534;-77
2021/08/17 10:03:52;;;;;;;3.73;2.00;;;21.20;79.50;;;;;;6222402;28;20284;-76
2021/08/17 10:06:59;;;;;;;2.73;1.87;;;21.40;83.90;;;;;;6222994;28;20290;-77
2021/08/17 10:10:02;;;;;;;3.13;2.10;;;21.60;82.30;;;;;;6222861;28;20730;-78
2021/08/17 10:13:04;;;;;;;3.07;1.87;;;21.80;80.80;;;;;;6206889;28;20193;-77
2021/08/17 10:16:07;;;;;;;2.87;2.10;;;21.90;81.00;;;;;;6236355;28;20322;-76
2021/08/17 10:19:17;;;;;;;2.20;1.63;;;21.90;78.10;;;;;;6206749;28;20346;-77
2021/08/17 10:22:19;;;;;;;7.43;2.23;;;21.80;74.90;;;;;;6224206;28;20221;-78
2021/08/17 10:25:23;;;;;;;1.90;1.63;;;22.10;78.40;;;;;;6222272;28;20221;-78
2021/08/17 10:28:35;;;;;;;3.57;2.00;;;22.40;73.50;;;;;;6206626;28;20189;-77
2021/08/17 10:31:49;;;;;;;5.73;2.00;;;22.60;66.60;;;;;;6206327;28;20218;-77
2021/08/17 10:34:51;;;;;;;2.17;1.97;;;23.00;71.70;;;;;;6206743;28;20565;-78
2021/08/17 10:38:09;;;;;;;3.50;2.30;;;23.30;72.80;;;;;;6224349;28;20196;-78
2021/08/17 10:41:13;;;;;;;4.77;2.10;;;23.40;70.80;;;;;;6221912;28;20240;-78
2021/08/17 10:44:17;;;;;;;3.47;1.90;;;23.30;67.40;;;;;;6222518;28;20335;-77
2021/08/17 10:47:34;;;;;;;3.00;2.10;;;23.40;68.50;;;;;;6222109;28;20193;-77
2021/08/17 10:50:36;;;;;;;4.40;2.20;;;23.70;68.20;;;;;;6222073;28;20204;-78
2021/08/17 10:53:40;;;;;;;5.13;1.90;;;24.10;68.50;;;;;;6206389;28;20587;-77
2021/08/17 10:56:45;;;;;;;3.30;2.00;;;23.80;62.60;;;;;;6205763;28;20242;-77
2021/08/17 10:59:50;;;;;;;2.53;1.87;;;23.70;62.10;;;;;;6222015;28;20216;-77
2021/08/17 11:02:58;;;;;;;3.90;2.00;;;23.70;62.30;;;;;;6221558;28;20201;-77
2021/08/17 11:06:01;;;;;;;2.90;1.63;;;23.70;58.60;;;;;;6221934;28;20205;-77
2021/08/17 11:09:08;;;;;;;4.53;1.87;;;23.80;63.00;;;;;;6221540;28;20224;-77
2021/08/17 11:12:11;;;;;;;3.17;1.87;;;24.10;64.60;;;;;;6223598;28;20267;-77
2021/08/17 11:15:15;;;;;;;2.20;1.70;;;24.00;58.60;;;;;;6222725;28;20835;-77
2021/08/17 11:18:19;;;;;;;2.60;1.70;;;23.80;59.90;;;;;;6209475;28;20199;-78
2021/08/17 11:21:30;;;;;;;3.97;1.80;;;23.70;58.10;;;;;;6205348;28;20278;-77
2021/08/17 11:24:49;;;;;;;3.03;1.97;;;23.60;57.90;;;;;;6204900;28;20244;-77
2021/08/17 11:27:51;;;;;;;5.77;1.70;;;23.50;59.10;;;;;;6205355;28;20189;-77
2021/08/17 11:30:54;;;;;;;2.30;1.70;;;23.90;59.30;;;;;;6221046;28;20205;-77
2021/08/17 11:34:17;;;;;;;4.63;2.27;;;24.00;59.00;;;;;;6221153;28;20185;-77
2021/08/17 11:37:20;;;;;;;3.50;1.77;;;24.10;57.80;;;;;;6204967;28;20332;-78
2021/08/17 11:40:23;;;;;;;3.80;1.90;;;24.30;58.30;;;;;;6204139;28;20303;-76
2021/08/17 11:43:25;;;;;;;3.13;1.80;;;24.50;58.90;;;;;;6222303;28;20310;-78
2021/08/17 11:46:28;;;;;;;2.67;1.57;;;24.80;58.50;;;;;;6223026;28;20251;-77
2021/08/17 11:49:30;;;;;;;2.17;1.77;;;25.20;58.50;;;;;;6221243;28;20193;-77
2021/08/17 11:52:44;;;;;;;2.60;1.67;;;25.20;56.80;;;;;;6220715;28;20291;-78
2021/08/17 11:55:47;;;;;;;2.65;1.52;;;25.30;56.90;;;;;;6222057;28;20247;-78
2021/08/17 11:58:54;;;;;;;2.25;1.80;;;25.50;58.60;;;;;;6221107;28;20299;-77
2021/08/17 12:02:01;;;;;;;5.45;1.90;;;25.20;53.30;;;;;;6220292;28;20408;-77
2021/08/17 12:05:07;;;;;;;2.50;1.83;;;25.30;54.60;;;;;;6221907;28;20234;-78
2021/08/17 12:08:10;;;;;;;2.90;1.63;;;25.20;56.00;;;;;;6220735;28;20280;-77
2021/08/17 12:11:21;;;;;;;2.70;1.60;;;25.60;56.10;;;;;;6220473;28;20267;-78
2021/08/17 12:14:24;;;;;;;3.67;1.80;;;25.80;56.30;;;;;;6222016;28;20272;-78
2021/08/17 12:17:26;;;;;;;2.33;1.73;;;26.00;55.10;;;;;;6202085;28;20193;-78
2021/08/17 12:20:30;;;;;;;1.67;1.55;;;26.40;54.70;;;;;;6221828;28;20185;-78
2021/08/17 12:23:36;;;;;;;1.75;1.60;;;26.70;53.80;;;;;;6221484;28;20193;-78
2021/08/17 12:26:38;;;;;;;7.18;1.88;;;26.90;52.30;;;;;;6221176;28;20263;-78
2021/08/17 12:29:42;;;;;;;2.10;1.70;;;26.90;51.50;;;;;;6220759;28;20238;-78
2021/08/17 12:32:53;;;;;;;2.97;1.70;;;26.90;51.50;;;;;;6221864;28;20799;-77
2021/08/17 12:35:55;;;;;;;4.22;1.55;;;26.70;52.60;;;;;;6221243;28;20209;-78
2021/08/17 12:39:07;;;;;;;2.95;1.70;;;26.70;54.00;;;;;;6222924;28;20244;-77
2021/08/17 12:42:17;;;;;;;2.38;1.30;;;26.90;52.20;;;;;;6221065;28;20225;-78
2021/08/17 12:45:33;;;;;;;2.83;1.42;;;26.80;51.70;;;;;;6220355;28;20228;-78
2021/08/17 12:48:45;;;;;;;1.55;1.38;;;26.80;52.00;;;;;;6220415;28;20192;-78
2021/08/17 12:51:47;;;;;;;2.50;1.45;;;27.10;52.70;;;;;;6224397;28;20193;-78
2021/08/17 12:54:51;;;;;;;3.85;1.70;;;27.10;49.60;;;;;;6213666;28;20209;-78
2021/08/17 12:57:55;;;;;;;3.65;1.60;;;27.10;53.10;;;;;;6185498;28;20208;-78
2021/08/17 13:00:58;;;;;;;3.70;1.70;;;26.90;49.20;;;;;;6222030;28;20196;-78
2021/08/17 13:04:00;;;;;;;3.22;1.60;;;27.30;50.90;;;;;;6209047;28;20230;-78
2021/08/17 13:07:03;;;;;;;3.67;1.65;;;27.40;50.30;;;;;;6225069;28;20216;-77
2021/08/17 13:10:09;;;;;;;3.33;1.70;;;27.40;49.20;;;;;;6224600;28;20343;-78
2021/08/17 13:13:12;;;;;;;2.03;1.52;;;27.30;49.00;;;;;;6224543;28;20196;-78
2021/08/17 13:16:14;;;;;;;3.08;1.67;;;27.50;50.80;;;;;;6218029;28;20275;-77
2021/08/17 13:19:17;;;;;;;3.20;1.80;;;27.70;46.90;;;;;;6225109;28;20220;-78
2021/08/17 13:22:20;;;;;;;2.65;1.40;;;27.50;48.50;;;;;;6226819;28;20231;-78
2021/08/17 13:25:23;;;;;;;2.15;1.63;;;27.80;46.90;;;;;;6226973;28;20313;-78
2021/08/17 13:28:25;;;;;;;2.22;1.20;;;28.10;51.20;;;;;;6224470;28;20752;-78
2021/08/17 13:31:27;;;;;;;2.00;1.35;;;28.50;48.50;;;;;;6225649;28;20195;-79
2021/08/17 13:34:30;;;;;;;2.42;1.40;;;29.00;47.60;;;;;;6225158;28;20660;-78
2021/08/17 13:37:33;;;;;;;1.42;1.33;;;28.80;45.00;;;;;;6224717;28;20605;-79
2021/08/17 13:40:36;;;;;;;1.40;1.20;;;28.60;44.40;;;;;;6226220;28;20318;-79
2021/08/17 13:43:38;;;;;;;2.58;1.73;;;28.50;47.70;;;;;;6209669;28;20228;-78
2021/08/17 13:46:41;;;;;;;4.82;1.30;;;28.40;46.40;;;;;;6227123;28;20223;-78
2021/08/17 13:49:43;;;;;;;3.05;1.38;;;28.70;46.00;;;;;;6225891;28;20567;-78
2021/08/17 13:52:45;;;;;;;1.40;1.10;;;29.20;44.80;;;;;;6225181;28;20567;-78
2021/08/17 13:55:48;;;;;;;2.88;1.20;;;29.80;44.60;;;;;;6210212;28;20571;-78
2021/08/17 13:58:51;;;;;;;2.75;1.50;;;30.00;44.20;;;;;;6225183;28;20695;-77
2021/08/17 14:01:55;;;;;;;1.73;1.45;;;30.30;43.00;;;;;;6207041;28;20258;-77
2021/08/17 14:04:57;;;;;;;1.70;1.30;;;30.60;43.40;;;;;;6223665;28;20564;-78
2021/08/17 14:08:01;;;;;;;2.05;1.30;;;31.00;43.90;;;;;;6217254;28;20221;-77
2021/08/17 14:11:04;;;;;;;1.67;1.25;;;31.10;41.60;;;;;;6229594;28;20189;-78
2021/08/17 14:14:08;;;;;;;2.00;1.30;;;31.30;42.20;;;;;;6224141;28;20538;-78
2021/08/17 14:17:10;;;;;;;2.92;1.35;;;31.70;40.10;;;;;;6223177;28;20287;-77
2021/08/17 14:20:12;;;;;;;1.70;1.50;;;31.90;41.00;;;;;;6224799;28;20196;-77
2021/08/17 14:23:15;;;;;;;1.40;0.98;;;32.40;39.30;;;;;;6206126;28;20205;-76
2021/08/17 14:26:26;;;;;;;1.67;1.30;;;32.30;40.10;;;;;;6226142;28;20283;-77
2021/08/17 14:29:29;;;;;;;1.60;1.45;;;32.40;39.00;;;;;;6225221;28;20283;-77
2021/08/17 14:32:31;;;;;;;1.73;1.33;;;32.30;37.50;;;;;;6223407;28;20189;-77
2021/08/17 14:35:34;;;;;;;1.30;1.20;;;32.20;38.00;;;;;;6225178;28;20303;-77
2021/08/17 14:38:36;;;;;;;2.10;1.42;;;32.40;39.10;;;;;;6223030;28;20205;-77
2021/08/17 14:41:39;;;;;;;1.38;1.27;;;32.60;37.50;;;;;;6198783;28;20588;-77
2021/08/17 14:44:41;;;;;;;1.35;1.25;;;32.30;36.90;;;;;;6189278;28;20204;-77
2021/08/17 14:47:43;;;;;;;2.38;1.67;;;32.50;36.50;;;;;;6223775;28;20665;-77
2021/08/17 14:50:46;;;;;;;2.35;1.30;;;32.70;36.30;;;;;;6222843;28;20193;-78
2021/08/17 14:53:48;;;;;;;2.13;1.40;;;32.40;36.80;;;;;;6223028;28;20247;-77
2021/08/17 14:56:51;;;;;;;2.25;1.20;;;32.80;37.80;;;;;;6222895;28;20197;-77
2021/08/17 14:59:53;;;;;;;1.80;1.30;;;33.20;37.20;;;;;;6222603;28;20247;-77
2021/08/17 15:02:57;;;;;;;2.08;1.42;;;33.50;36.80;;;;;;6222993;28;20193;-77
2021/08/17 15:06:01;;;;;;;1.83;1.50;;;33.60;35.30;;;;;;6222174;28;20235;-77
2021/08/17 15:09:03;;;;;;;1.90;1.30;;;33.30;35.10;;;;;;6205617;28;20200;-77
2021/08/17 15:12:06;;;;;;;1.40;1.30;;;33.30;36.90;;;;;;6222395;28;20196;-77
2021/08/17 15:15:10;;;;;;;1.75;1.30;;;33.30;36.70;;;;;;6223611;28;20192;-77
2021/08/17 15:18:14;;;;;;;2.30;1.45;;;33.30;35.50;;;;;;6223005;28;20224;-77
2021/08/17 15:21:17;;;;;;;3.40;1.60;;;33.60;37.10;;;;;;6205373;28;20197;-77
2021/08/17 15:24:19;;;;;;;2.53;1.45;;;33.90;36.20;;;;;;6222931;28;20748;-77
2021/08/17 15:27:21;;;;;;;2.25;1.55;;;33.90;35.30;;;;;;6238601;28;20339;-77
2021/08/17 15:30:26;;;;;;;1.98;1.50;;;33.50;34.50;;;;;;6220911;28;20200;-77
2021/08/17 15:33:29;;;;;;;1.55;1.40;;;33.20;34.20;;;;;;6223204;28;20195;-77
2021/08/17 15:36:31;;;;;;;1.58;1.48;;;32.80;36.80;;;;;;6220642;28;20589;-76
2021/08/17 15:39:34;;;;;;;3.85;1.50;;;33.10;36.00;;;;;;6222844;28;20196;-77
2021/08/17 15:42:40;;;;;;;3.90;1.60;;;33.40;36.80;;;;;;6221785;28;20278;-76
2021/08/17 15:45:43;;;;;;;1.45;1.35;;;33.10;35.30;;;;;;6217019;28;20229;-76
2021/08/17 15:48:45;;;;;;;2.38;1.45;;;31.40;35.70;;;;;;6221268;28;20263;-77
2021/08/17 15:51:49;;;;;;;2.17;1.50;;;29.20;39.20;;;;;;6220174;28;20651;-76
2021/08/17 15:54:51;;;;;;;2.55;1.63;;;27.40;40.50;;;;;;6221004;28;20735;-77
2021/08/17 15:57:53;;;;;;;1.88;1.52;;;25.80;41.40;;;;;;6220614;28;20204;-76